sensor_id;sensor_type;location;lat;lon;timestamp;P1;durP1;ratioP1;P2;durP2;ratioP2
71162;SDS011;58858;50.948;6.566;2023-04-03T00:05:51;3.25;;;2.00;;
71162;SDS011;58858;50.948;6.566;2023-04-03T00:15:52;2.72;;;2.13;;
71162;SDS011;58858;50.948;6.566;2023-04-03T00:25:54;6.05;;;3.17;;
71162;SDS011;58858;50.948;6.566;2023-04-03T00:35:55;9.07;;;2.17;;
71162;SDS011;58858;50.948;6.566;2023-04-03T00:45:57;6.47;;;2.38;;
71162;SDS011;58858;50.948;6.566;2023-04-03T00:55:59;3.58;;;2.58;;
71162;SDS011;58858;50.948;6.566;2023-04-03T01:06:02;6.18;;;2.65;;
71162;SDS011;58858;50.948;6.566;2023-04-03T01:16:04;5.68;;;3.30;;
71162;SDS011;58858;50.948;6.566;2023-04-03T01:26:06;7.45;;;4.13;;
71162;SDS011;58858;50.948;6.566;2023-04-03T01:36:08;6.07;;;3.38;;
71162;SDS011;58858;50.948;6.566;2023-04-03T01:46:10;8.30;;;4.55;;
71162;SDS011;58858;50.948;6.566;2023-04-03T01:56:11;7.72;;;4.18;;
71162;SDS011;58858;50.948;6.566;2023-04-03T02:06:13;10.48;;;4.13;;
71162;SDS011;58858;50.948;6.566;2023-04-03T02:16:14;8.10;;;3.90;;
71162;SDS011;58858;50.948;6.566;2023-04-03T02:26:16;5.25;;;4.07;;
71162;SDS011;58858;50.948;6.566;2023-04-03T02:36:19;8.45;;;4.93;;
71162;SDS011;58858;50.948;6.566;2023-04-03T02:46:26;8.63;;;4.90;;
71162;SDS011;58858;50.948;6.566;2023-04-03T02:56:28;8.15;;;5.00;;
71162;SDS011;58858;50.948;6.566;2023-04-03T03:06:29;9.75;;;5.53;;
71162;SDS011;58858;50.948;6.566;2023-04-03T03:16:30;7.55;;;5.22;;
71162;SDS011;58858;50.948;6.566;2023-04-03T03:26:31;6.88;;;5.15;;
71162;SDS011;58858;50.948;6.566;2023-04-03T03:36:32;9.30;;;4.78;;
71162;SDS011;58858;50.948;6.566;2023-04-03T03:46:34;7.63;;;5.38;;
71162;SDS011;58858;50.948;6.566;2023-04-03T03:56:36;9.63;;;5.38;;
71162;SDS011;58858;50.948;6.566;2023-04-03T04:06:37;7.47;;;5.18;;
71162;SDS011;58858;50.948;6.566;2023-04-03T04:16:41;7.53;;;4.77;;
71162;SDS011;58858;50.948;6.566;2023-04-03T04:26:48;8.40;;;4.68;;
71162;SDS011;58858;50.948;6.566;2023-04-03T04:36:51;7.07;;;4.72;;
71162;SDS011;58858;50.948;6.566;2023-04-03T04:46:53;5.72;;;3.70;;
71162;SDS011;58858;50.948;6.566;2023-04-03T04:56:55;15.57;;;5.38;;
71162;SDS011;58858;50.948;6.566;2023-04-03T05:06:56;10.23;;;4.93;;
71162;SDS011;58858;50.948;6.566;2023-04-03T05:17:01;11.40;;;5.38;;
71162;SDS011;58858;50.948;6.566;2023-04-03T05:27:05;5.13;;;3.20;;
71162;SDS011;58858;50.948;6.566;2023-04-03T05:37:11;7.88;;;4.32;;
71162;SDS011;58858;50.948;6.566;2023-04-03T05:47:12;10.25;;;4.40;;
71162;SDS011;58858;50.948;6.566;2023-04-03T05:57:14;6.72;;;3.60;;
71162;SDS011;58858;50.948;6.566;2023-04-03T06:07:17;6.88;;;3.80;;
71162;SDS011;58858;50.948;6.566;2023-04-03T06:17:23;8.07;;;4.78;;
71162;SDS011;58858;50.948;6.566;2023-04-03T06:27:25;8.70;;;3.55;;
71162;SDS011;58858;50.948;6.566;2023-04-03T06:37:26;8.38;;;4.05;;
71162;SDS011;58858;50.948;6.566;2023-04-03T06:47:28;6.25;;;3.38;;
71162;SDS011;58858;50.948;6.566;2023-04-03T06:57:29;3.95;;;2.10;;
71162;SDS011;58858;50.948;6.566;2023-04-03T07:07:31;6.22;;;2.03;;
71162;SDS011;58858;50.948;6.566;2023-04-03T07:17:33;4.07;;;1.90;;
71162;SDS011;58858;50.948;6.566;2023-04-03T07:27:35;5.00;;;2.10;;
71162;SDS011;58858;50.948;6.566;2023-04-03T07:37:36;4.32;;;1.77;;
71162;SDS011;58858;50.948;6.566;2023-04-03T07:47:37;4.47;;;2.63;;
71162;SDS011;58858;50.948;6.566;2023-04-03T07:57:38;5.68;;;2.90;;
71162;SDS011;58858;50.948;6.566;2023-04-03T08:07:39;4.53;;;2.10;;
71162;SDS011;58858;50.948;6.566;2023-04-03T08:17:41;5.70;;;1.73;;
71162;SDS011;58858;50.948;6.566;2023-04-03T08:27:42;6.15;;;2.17;;
71162;SDS011;58858;50.948;6.566;2023-04-03T08:37:43;9.05;;;2.92;;
71162;SDS011;58858;50.948;6.566;2023-04-03T08:47:52;4.75;;;2.03;;
71162;SDS011;58858;50.948;6.566;2023-04-03T09:08:29;2.03;;;1.08;;
71162;SDS011;58858;50.948;6.566;2023-04-03T09:18:32;2.42;;;1.48;;
71162;SDS011;58858;50.948;6.566;2023-04-03T09:28:41;3.95;;;0.90;;
71162;SDS011;58858;50.948;6.566;2023-04-03T09:38:43;1.63;;;1.00;;
71162;SDS011;58858;50.948;6.566;2023-04-03T09:48:51;4.45;;;1.67;;
71162;SDS011;58858;50.948;6.566;2023-04-03T10:09:05;5.15;;;1.48;;
71162;SDS011;58858;50.948;6.566;2023-04-03T10:19:29;3.55;;;1.00;;
71162;SDS011;58858;50.948;6.566;2023-04-03T10:29:42;4.78;;;1.02;;
71162;SDS011;58858;50.948;6.566;2023-04-03T10:39:52;2.58;;;0.80;;
71162;SDS011;58858;50.948;6.566;2023-04-03T10:50:21;3.92;;;1.13;;
71162;SDS011;58858;50.948;6.566;2023-04-03T11:00:40;3.08;;;1.10;;
71162;SDS011;58858;50.948;6.566;2023-04-03T11:10:44;2.53;;;1.05;;
71162;SDS011;58858;50.948;6.566;2023-04-03T11:20:50;2.20;;;0.82;;
71162;SDS011;58858;50.948;6.566;2023-04-03T11:41:30;1.75;;;0.73;;
71162;SDS011;58858;50.948;6.566;2023-04-03T11:51:38;3.00;;;1.23;;
71162;SDS011;58858;50.948;6.566;2023-04-03T12:01:50;3.28;;;1.25;;
71162;SDS011;58858;50.948;6.566;2023-04-03T12:11:55;2.40;;;1.40;;
71162;SDS011;58858;50.948;6.566;2023-04-03T12:42:17;3.55;;;0.98;;
71162;SDS011;58858;50.948;6.566;2023-04-03T12:52:44;0.98;;;0.52;;
71162;SDS011;58858;50.948;6.566;2023-04-03T13:02:46;1.92;;;0.77;;
71162;SDS011;58858;50.948;6.566;2023-04-03T13:12:52;1.60;;;0.60;;
71162;SDS011;58858;50.948;6.566;2023-04-03T13:22:56;1.38;;;0.77;;
71162;SDS011;58858;50.948;6.566;2023-04-03T13:33:01;1.63;;;0.50;;
71162;SDS011;58858;50.948;6.566;2023-04-03T13:43:16;2.08;;;0.70;;
71162;SDS011;58858;50.948;6.566;2023-04-03T13:53:21;1.65;;;1.00;;
71162;SDS011;58858;50.948;6.566;2023-04-03T14:03:25;1.85;;;0.65;;
71162;SDS011;58858;50.948;6.566;2023-04-03T14:13:34;2.00;;;1.25;;
71162;SDS011;58858;50.948;6.566;2023-04-03T14:23:36;2.65;;;1.23;;
71162;SDS011;58858;50.948;6.566;2023-04-03T14:33:37;2.85;;;0.65;;
71162;SDS011;58858;50.948;6.566;2023-04-03T14:43:38;0.77;;;0.75;;
71162;SDS011;58858;50.948;6.566;2023-04-03T14:53:40;2.67;;;1.42;;
71162;SDS011;58858;50.948;6.566;2023-04-03T15:03:42;3.83;;;0.90;;
71162;SDS011;58858;50.948;6.566;2023-04-03T15:13:43;2.10;;;0.93;;
71162;SDS011;58858;50.948;6.566;2023-04-03T15:23:45;2.75;;;1.33;;
71162;SDS011;58858;50.948;6.566;2023-04-03T15:33:46;4.05;;;1.17;;
71162;SDS011;58858;50.948;6.566;2023-04-03T15:43:47;3.85;;;1.08;;
71162;SDS011;58858;50.948;6.566;2023-04-03T15:53:48;5.75;;;1.98;;
71162;SDS011;58858;50.948;6.566;2023-04-03T16:03:49;4.45;;;1.58;;
71162;SDS011;58858;50.948;6.566;2023-04-03T16:13:50;2.58;;;1.05;;
71162;SDS011;58858;50.948;6.566;2023-04-03T16:23:51;3.97;;;1.30;;
71162;SDS011;58858;50.948;6.566;2023-04-03T16:33:52;1.60;;;1.00;;
71162;SDS011;58858;50.948;6.566;2023-04-03T16:43:53;2.55;;;1.05;;
71162;SDS011;58858;50.948;6.566;2023-04-03T16:53:54;2.58;;;1.20;;
71162;SDS011;58858;50.948;6.566;2023-04-03T17:03:55;4.18;;;1.40;;
71162;SDS011;58858;50.948;6.566;2023-04-03T17:13:56;3.42;;;0.93;;
71162;SDS011;58858;50.948;6.566;2023-04-03T17:23:59;3.25;;;1.23;;
71162;SDS011;58858;50.948;6.566;2023-04-03T17:34:02;3.17;;;1.05;;
71162;SDS011;58858;50.948;6.566;2023-04-03T17:44:03;2.53;;;0.93;;
71162;SDS011;58858;50.948;6.566;2023-04-03T17:54:04;3.47;;;0.90;;
71162;SDS011;58858;50.948;6.566;2023-04-03T18:04:05;4.70;;;1.77;;
71162;SDS011;58858;50.948;6.566;2023-04-03T18:14:06;3.00;;;1.00;;
71162;SDS011;58858;50.948;6.566;2023-04-03T18:24:12;4.60;;;1.10;;
71162;SDS011;58858;50.948;6.566;2023-04-03T18:34:14;5.30;;;1.60;;
71162;SDS011;58858;50.948;6.566;2023-04-03T18:44:16;7.20;;;2.15;;
71162;SDS011;58858;50.948;6.566;2023-04-03T18:54:19;4.57;;;1.40;;
71162;SDS011;58858;50.948;6.566;2023-04-03T19:04:20;6.65;;;1.83;;
71162;SDS011;58858;50.948;6.566;2023-04-03T19:14:22;10.40;;;1.80;;
71162;SDS011;58858;50.948;6.566;2023-04-03T19:24:23;7.18;;;1.48;;
71162;SDS011;58858;50.948;6.566;2023-04-03T19:34:24;3.67;;;1.67;;
71162;SDS011;58858;50.948;6.566;2023-04-03T19:44:25;2.90;;;1.80;;
71162;SDS011;58858;50.948;6.566;2023-04-03T19:54:27;4.80;;;2.03;;
71162;SDS011;58858;50.948;6.566;2023-04-03T20:04:28;3.00;;;1.42;;
71162;SDS011;58858;50.948;6.566;2023-04-03T20:14:29;7.25;;;1.83;;
71162;SDS011;58858;50.948;6.566;2023-04-03T20:24:30;3.13;;;1.02;;
71162;SDS011;58858;50.948;6.566;2023-04-03T20:34:31;7.38;;;1.27;;
71162;SDS011;58858;50.948;6.566;2023-04-03T20:44:33;3.42;;;1.30;;
71162;SDS011;58858;50.948;6.566;2023-04-03T20:54:34;3.38;;;1.23;;
71162;SDS011;58858;50.948;6.566;2023-04-03T21:04:40;3.67;;;1.67;;
71162;SDS011;58858;50.948;6.566;2023-04-03T21:25:26;4.10;;;1.88;;
71162;SDS011;58858;50.948;6.566;2023-04-03T21:35:27;4.57;;;1.85;;
71162;SDS011;58858;50.948;6.566;2023-04-03T21:45:30;3.78;;;1.65;;
71162;SDS011;58858;50.948;6.566;2023-04-03T21:55:31;3.50;;;1.65;;
71162;SDS011;58858;50.948;6.566;2023-04-03T22:05:32;3.42;;;1.20;;
71162;SDS011;58858;50.948;6.566;2023-04-03T22:15:35;3.10;;;1.20;;
71162;SDS011;58858;50.948;6.566;2023-04-03T22:25:42;6.32;;;1.75;;
71162;SDS011;58858;50.948;6.566;2023-04-03T22:35:46;3.55;;;1.25;;
71162;SDS011;58858;50.948;6.566;2023-04-03T22:45:48;2.40;;;1.00;;
71162;SDS011;58858;50.948;6.566;2023-04-03T22:55:53;2.75;;;1.42;;
71162;SDS011;58858;50.948;6.566;2023-04-03T23:05:58;2.58;;;1.58;;
71162;SDS011;58858;50.948;6.566;2023-04-03T23:16:01;3.40;;;1.45;;
71162;SDS011;58858;50.948;6.566;2023-04-03T23:26:03;1.35;;;0.98;;
71162;SDS011;58858;50.948;6.566;2023-04-03T23:36:07;6.32;;;1.50;;
71162;SDS011;58858;50.948;6.566;2023-04-03T23:46:08;4.33;;;1.10;;
71162;SDS011;58858;50.948;6.566;2023-04-03T23:56:09;2.45;;;1.30;;
